sensor_id;sensor_type;location;lat;lon;timestamp;pressure;altitude;pressure_sealevel;temperature;humidity
46111;BME280;31849;55.992;37.252;2023-02-16T00:03:23;100015.94;;;-2.32;55.67
46111;BME280;31849;55.992;37.252;2023-02-16T00:08:49;100014.09;;;-2.34;55.88
46111;BME280;31849;55.992;37.252;2023-02-16T00:13:52;100015.50;;;-2.39;55.66
46111;BME280;31849;55.992;37.252;2023-02-16T00:18:57;100012.16;;;-2.38;56.08
46111;BME280;31849;55.992;37.252;2023-02-16T00:24:01;99996.38;;;-2.48;55.92
46111;BME280;31849;55.992;37.252;2023-02-16T00:29:04;100002.50;;;-2.44;55.76
46111;BME280;31849;55.992;37.252;2023-02-16T00:34:25;99998.47;;;-2.40;55.65
46111;BME280;31849;55.992;37.252;2023-02-16T00:39:29;100004.00;;;-2.48;56.18
46111;BME280;31849;55.992;37.252;2023-02-16T00:44:34;100000.13;;;-2.41;55.87
46111;BME280;31849;55.992;37.252;2023-02-16T00:49:40;99997.41;;;-2.44;56.06
46111;BME280;31849;55.992;37.252;2023-02-16T00:54:43;100000.47;;;-2.50;56.01
46111;BME280;31849;55.992;37.252;2023-02-16T00:59:48;100004.25;;;-2.58;56.08
46111;BME280;31849;55.992;37.252;2023-02-16T01:04:53;99996.63;;;-2.58;56.31
46111;BME280;31849;55.992;37.252;2023-02-16T01:09:56;100000.63;;;-2.47;55.77
46111;BME280;31849;55.992;37.252;2023-02-16T01:15:20;99992.22;;;-2.60;56.10
46111;BME280;31849;55.992;37.252;2023-02-16T01:20:27;100002.66;;;-2.56;56.16
46111;BME280;31849;55.992;37.252;2023-02-16T01:25:30;100003.97;;;-2.62;56.67
46111;BME280;31849;55.992;37.252;2023-02-16T01:30:34;100008.34;;;-2.60;56.84
46111;BME280;31849;55.992;37.252;2023-02-16T01:35:39;100006.88;;;-2.56;56.45
46111;BME280;31849;55.992;37.252;2023-02-16T01:40:45;100004.88;;;-2.47;56.82
46111;BME280;31849;55.992;37.252;2023-02-16T01:45:58;100006.28;;;-2.52;56.77
46111;BME280;31849;55.992;37.252;2023-02-16T01:51:11;100005.81;;;-2.60;56.56
46111;BME280;31849;55.992;37.252;2023-02-16T01:56:26;100008.19;;;-2.63;57.05
46111;BME280;31849;55.992;37.252;2023-02-16T02:01:43;100005.97;;;-2.72;56.82
46111;BME280;31849;55.992;37.252;2023-02-16T02:06:49;100006.03;;;-2.85;56.87
46111;BME280;31849;55.992;37.252;2023-02-16T02:11:58;100009.19;;;-2.89;57.28
46111;BME280;31849;55.992;37.252;2023-02-16T02:17:08;100008.91;;;-2.94;56.74
46111;BME280;31849;55.992;37.252;2023-02-16T02:28:07;100013.47;;;-2.88;56.96
46111;BME280;31849;55.992;37.252;2023-02-16T02:33:24;100016.25;;;-2.98;57.35
46111;BME280;31849;55.992;37.252;2023-02-16T02:38:33;100017.19;;;-3.11;56.95
46111;BME280;31849;55.992;37.252;2023-02-16T02:43:45;100007.69;;;-3.14;56.89
46111;BME280;31849;55.992;37.252;2023-02-16T02:48:53;100020.25;;;-3.30;57.39
46111;BME280;31849;55.992;37.252;2023-02-16T02:53:59;100016.06;;;-3.43;57.17
46111;BME280;31849;55.992;37.252;2023-02-16T02:59:23;100017.66;;;-3.45;57.00
46111;BME280;31849;55.992;37.252;2023-02-16T03:04:45;100015.13;;;-3.59;57.32
46111;BME280;31849;55.992;37.252;2023-02-16T03:09:49;99979.09;;;-3.80;57.50
46111;BME280;31849;55.992;37.252;2023-02-16T03:15:15;100004.88;;;-3.60;57.50
46111;BME280;31849;55.992;37.252;2023-02-16T03:20:19;100002.91;;;-3.64;57.57
46111;BME280;31849;55.992;37.252;2023-02-16T03:25:41;100002.31;;;-3.60;57.59
46111;BME280;31849;55.992;37.252;2023-02-16T03:31:05;99995.25;;;-3.51;57.81
46111;BME280;31849;55.992;37.252;2023-02-16T03:36:10;100001.84;;;-3.55;57.24
46111;BME280;31849;55.992;37.252;2023-02-16T03:41:13;99999.59;;;-3.63;57.97
46111;BME280;31849;55.992;37.252;2023-02-16T03:46:18;100000.84;;;-3.70;57.65
46111;BME280;31849;55.992;37.252;2023-02-16T03:51:22;99994.44;;;-3.92;57.90
46111;BME280;31849;55.992;37.252;2023-02-16T03:56:25;99995.88;;;-3.95;58.03
46111;BME280;31849;55.992;37.252;2023-02-16T04:01:30;99999.00;;;-3.86;58.04
46111;BME280;31849;55.992;37.252;2023-02-16T04:06:34;99988.81;;;-3.86;57.81
46111;BME280;31849;55.992;37.252;2023-02-16T04:11:37;99998.59;;;-3.65;57.33
46111;BME280;31849;55.992;37.252;2023-02-16T04:16:59;99989.22;;;-3.53;57.34
46111;BME280;31849;55.992;37.252;2023-02-16T04:22:04;100001.31;;;-3.49;57.62
46111;BME280;31849;55.992;37.252;2023-02-16T04:27:08;100001.22;;;-3.50;57.77
46111;BME280;31849;55.992;37.252;2023-02-16T04:32:13;99967.19;;;-3.53;57.32
46111;BME280;31849;55.992;37.252;2023-02-16T04:37:16;99983.31;;;-3.52;56.97
46111;BME280;31849;55.992;37.252;2023-02-16T04:42:20;99988.13;;;-3.57;57.60
46111;BME280;31849;55.992;37.252;2023-02-16T04:47:25;99975.91;;;-3.62;57.75
46111;BME280;31849;55.992;37.252;2023-02-16T04:52:29;99980.00;;;-3.51;57.75
46111;BME280;31849;55.992;37.252;2023-02-16T04:57:33;99989.41;;;-3.50;58.01
46111;BME280;31849;55.992;37.252;2023-02-16T05:02:38;99988.50;;;-3.50;58.11
46111;BME280;31849;55.992;37.252;2023-02-16T05:07:42;99971.63;;;-3.63;57.80
46111;BME280;31849;55.992;37.252;2023-02-16T05:12:45;99995.34;;;-3.49;58.13
46111;BME280;31849;55.992;37.252;2023-02-16T05:18:07;100001.41;;;-3.47;57.82
46111;BME280;31849;55.992;37.252;2023-02-16T05:23:11;100007.00;;;-3.53;58.09
46111;BME280;31849;55.992;37.252;2023-02-16T05:28:14;100002.50;;;-3.44;57.96
46111;BME280;31849;55.992;37.252;2023-02-16T05:33:19;100001.56;;;-3.17;57.58
46111;BME280;31849;55.992;37.252;2023-02-16T05:38:23;99999.47;;;-3.10;57.17
46111;BME280;31849;55.992;37.252;2023-02-16T05:43:27;99994.75;;;-3.04;57.42
46111;BME280;31849;55.992;37.252;2023-02-16T05:48:32;99989.97;;;-2.84;56.97
46111;BME280;31849;55.992;37.252;2023-02-16T05:53:35;99992.81;;;-2.65;56.79
46111;BME280;31849;55.992;37.252;2023-02-16T05:58:39;99971.75;;;-2.77;56.77
46111;BME280;31849;55.992;37.252;2023-02-16T06:03:44;99995.19;;;-2.53;56.86
46111;BME280;31849;55.992;37.252;2023-02-16T06:08:48;99984.84;;;-2.41;56.17
46111;BME280;31849;55.992;37.252;2023-02-16T06:13:51;99995.22;;;-2.23;55.96
46111;BME280;31849;55.992;37.252;2023-02-16T06:19:00;99992.22;;;-2.01;55.65
46111;BME280;31849;55.992;37.252;2023-02-16T06:24:04;100000.09;;;-1.81;55.38
46111;BME280;31849;55.992;37.252;2023-02-16T06:29:08;100007.97;;;-1.62;54.85
46111;BME280;31849;55.992;37.252;2023-02-16T06:34:13;99999.69;;;-1.57;55.25
46111;BME280;31849;55.992;37.252;2023-02-16T06:39:17;99995.19;;;-1.47;54.72
46111;BME280;31849;55.992;37.252;2023-02-16T06:44:20;99993.84;;;-1.40;54.67
46111;BME280;31849;55.992;37.252;2023-02-16T06:49:25;100000.25;;;-1.32;54.22
46111;BME280;31849;55.992;37.252;2023-02-16T06:54:29;99998.16;;;-1.22;54.17
46111;BME280;31849;55.992;37.252;2023-02-16T06:59:33;99995.22;;;-1.14;54.23
46111;BME280;31849;55.992;37.252;2023-02-16T07:04:38;99993.16;;;-0.88;53.69
46111;BME280;31849;55.992;37.252;2023-02-16T07:09:41;99988.69;;;-0.59;52.97
46111;BME280;31849;55.992;37.252;2023-02-16T07:14:45;99991.81;;;-0.65;52.43
46111;BME280;31849;55.992;37.252;2023-02-16T07:19:51;99996.44;;;-0.58;52.69
46111;BME280;31849;55.992;37.252;2023-02-16T07:24:54;99992.41;;;-0.52;52.69
46111;BME280;31849;55.992;37.252;2023-02-16T07:29:58;99981.22;;;-0.38;52.25
46111;BME280;31849;55.992;37.252;2023-02-16T07:35:04;99979.41;;;-0.23;51.66
46111;BME280;31849;55.992;37.252;2023-02-16T07:40:09;99983.34;;;-0.29;51.92
46111;BME280;31849;55.992;37.252;2023-02-16T07:45:14;99978.16;;;-0.31;51.69
46111;BME280;31849;55.992;37.252;2023-02-16T07:50:19;99973.47;;;-0.40;51.74
46111;BME280;31849;55.992;37.252;2023-02-16T07:55:22;99965.25;;;-0.16;51.20
46111;BME280;31849;55.992;37.252;2023-02-16T08:00:26;99964.69;;;0.26;50.75
46111;BME280;31849;55.992;37.252;2023-02-16T08:05:33;99975.97;;;1.06;49.05
46111;BME280;31849;55.992;37.252;2023-02-16T08:10:36;99967.63;;;1.51;47.74
46111;BME280;31849;55.992;37.252;2023-02-16T08:15:41;99968.59;;;1.74;47.27
46111;BME280;31849;55.992;37.252;2023-02-16T08:20:47;99973.41;;;1.87;47.46
46111;BME280;31849;55.992;37.252;2023-02-16T08:26:07;99972.28;;;1.60;47.48
46111;BME280;31849;55.992;37.252;2023-02-16T08:31:12;99970.31;;;1.13;47.78
46111;BME280;31849;55.992;37.252;2023-02-16T08:36:18;99975.31;;;0.91;47.96
46111;BME280;31849;55.992;37.252;2023-02-16T08:41:23;99964.22;;;0.72;48.08
46111;BME280;31849;55.992;37.252;2023-02-16T08:46:28;99956.84;;;0.41;48.59
46111;BME280;31849;55.992;37.252;2023-02-16T08:51:36;99953.78;;;0.30;48.93
46111;BME280;31849;55.992;37.252;2023-02-16T08:56:40;99953.91;;;0.51;49.23
46111;BME280;31849;55.992;37.252;2023-02-16T09:01:47;99955.81;;;0.55;48.70
46111;BME280;31849;55.992;37.252;2023-02-16T09:06:52;99949.38;;;0.45;48.66
46111;BME280;31849;55.992;37.252;2023-02-16T09:11:55;99955.75;;;0.17;49.49
46111;BME280;31849;55.992;37.252;2023-02-16T09:16:59;99959.72;;;-0.07;50.22
46111;BME280;31849;55.992;37.252;2023-02-16T09:22:05;99958.97;;;-0.05;49.58
46111;BME280;31849;55.992;37.252;2023-02-16T09:27:09;99952.47;;;0.02;49.54
46111;BME280;31849;55.992;37.252;2023-02-16T09:32:12;99951.00;;;0.07;49.46
46111;BME280;31849;55.992;37.252;2023-02-16T09:37:17;99949.56;;;-0.06;49.27
46111;BME280;31849;55.992;37.252;2023-02-16T09:42:28;99948.28;;;0.22;49.14
46111;BME280;31849;55.992;37.252;2023-02-16T09:47:37;99937.19;;;0.22;49.19
46111;BME280;31849;55.992;37.252;2023-02-16T09:52:49;99940.25;;;0.32;48.79
46111;BME280;31849;55.992;37.252;2023-02-16T09:58:01;99934.16;;;0.11;49.55
46111;BME280;31849;55.992;37.252;2023-02-16T10:03:15;99929.69;;;0.44;48.98
46111;BME280;31849;55.992;37.252;2023-02-16T10:08:26;99939.41;;;0.14;49.79
46111;BME280;31849;55.992;37.252;2023-02-16T10:13:36;99930.16;;;0.54;49.09
46111;BME280;31849;55.992;37.252;2023-02-16T10:18:44;99934.38;;;0.53;48.27
46111;BME280;31849;55.992;37.252;2023-02-16T10:23:55;99930.53;;;0.43;47.56
46111;BME280;31849;55.992;37.252;2023-02-16T10:29:05;99932.00;;;0.20;46.90
46111;BME280;31849;55.992;37.252;2023-02-16T10:34:18;99921.66;;;-0.01;47.49
46111;BME280;31849;55.992;37.252;2023-02-16T10:39:25;99928.81;;;0.06;47.56
46111;BME280;31849;55.992;37.252;2023-02-16T10:44:35;99926.78;;;-0.01;48.00
46111;BME280;31849;55.992;37.252;2023-02-16T10:49:41;99924.09;;;-0.39;48.46
46111;BME280;31849;55.992;37.252;2023-02-16T10:54:46;99925.22;;;-0.33;48.35
46111;BME280;31849;55.992;37.252;2023-02-16T10:59:49;99924.94;;;-0.22;47.97
46111;BME280;31849;55.992;37.252;2023-02-16T11:04:55;99924.94;;;-0.22;47.83
46111;BME280;31849;55.992;37.252;2023-02-16T11:10:17;99919.19;;;0.01;47.36
46111;BME280;31849;55.992;37.252;2023-02-16T11:15:23;99918.91;;;-0.06;47.85
46111;BME280;31849;55.992;37.252;2023-02-16T11:20:29;99915.44;;;-0.06;47.56
46111;BME280;31849;55.992;37.252;2023-02-16T11:25:35;99907.19;;;-0.01;48.03
46111;BME280;31849;55.992;37.252;2023-02-16T11:30:40;99913.28;;;0.02;47.93
46111;BME280;31849;55.992;37.252;2023-02-16T11:35:44;99907.13;;;-0.02;47.85
46111;BME280;31849;55.992;37.252;2023-02-16T11:40:51;99904.28;;;0.29;47.45
46111;BME280;31849;55.992;37.252;2023-02-16T11:45:58;99897.78;;;0.36;47.34
46111;BME280;31849;55.992;37.252;2023-02-16T11:51:04;99897.66;;;0.33;47.29
46111;BME280;31849;55.992;37.252;2023-02-16T11:56:20;99889.72;;;0.27;46.91
46111;BME280;31849;55.992;37.252;2023-02-16T12:01:30;99895.41;;;0.21;46.88
46111;BME280;31849;55.992;37.252;2023-02-16T12:06:48;99898.50;;;0.14;46.81
46111;BME280;31849;55.992;37.252;2023-02-16T12:12:05;99900.25;;;-0.03;46.97
46111;BME280;31849;55.992;37.252;2023-02-16T12:17:20;99891.56;;;-0.25;47.00
46111;BME280;31849;55.992;37.252;2023-02-16T12:22:33;99891.34;;;-0.47;47.22
46111;BME280;31849;55.992;37.252;2023-02-16T12:27:44;99893.28;;;-0.60;47.15
46111;BME280;31849;55.992;37.252;2023-02-16T12:33:01;99894.69;;;-0.66;47.15
46111;BME280;31849;55.992;37.252;2023-02-16T12:38:17;99892.66;;;-0.56;46.62
46111;BME280;31849;55.992;37.252;2023-02-16T12:43:34;99884.31;;;-0.69;46.06
46111;BME280;31849;55.992;37.252;2023-02-16T12:48:44;99891.44;;;-0.97;46.04
46111;BME280;31849;55.992;37.252;2023-02-16T12:54:13;99898.00;;;-1.02;46.98
46111;BME280;31849;55.992;37.252;2023-02-16T12:59:23;99904.38;;;-1.10;47.43
46111;BME280;31849;55.992;37.252;2023-02-16T13:04:35;99900.28;;;-1.41;47.92
46111;BME280;31849;55.992;37.252;2023-02-16T13:09:42;99900.91;;;-1.45;47.87
46111;BME280;31849;55.992;37.252;2023-02-16T13:14:57;99904.69;;;-1.70;47.91
46111;BME280;31849;55.992;37.252;2023-02-16T13:20:11;99904.47;;;-1.42;47.79
46111;BME280;31849;55.992;37.252;2023-02-16T13:31:26;99902.16;;;-1.53;47.59
46111;BME280;31849;55.992;37.252;2023-02-16T13:36:53;99904.22;;;-1.63;47.81
46111;BME280;31849;55.992;37.252;2023-02-16T13:42:23;99900.72;;;-1.65;47.93
46111;BME280;31849;55.992;37.252;2023-02-16T13:47:33;99899.13;;;-1.63;47.76
46111;BME280;31849;55.992;37.252;2023-02-16T13:52:41;99895.78;;;-1.62;47.24
46111;BME280;31849;55.992;37.252;2023-02-16T13:58:03;99893.69;;;-1.69;47.27
46111;BME280;31849;55.992;37.252;2023-02-16T14:03:36;99901.13;;;-1.57;46.45
46111;BME280;31849;55.992;37.252;2023-02-16T14:08:40;99896.16;;;-1.87;47.91
46111;BME280;31849;55.992;37.252;2023-02-16T14:13:49;99890.41;;;-1.83;47.90
46111;BME280;31849;55.992;37.252;2023-02-16T14:18:56;99893.03;;;-1.81;47.80
46111;BME280;31849;55.992;37.252;2023-02-16T14:24:02;99906.41;;;-1.85;48.84
46111;BME280;31849;55.992;37.252;2023-02-16T14:29:15;99893.31;;;-1.77;49.06
46111;BME280;31849;55.992;37.252;2023-02-16T14:34:26;99894.78;;;-1.80;48.74
46111;BME280;31849;55.992;37.252;2023-02-16T14:39:31;99905.44;;;-1.87;49.32
46111;BME280;31849;55.992;37.252;2023-02-16T14:44:49;99900.06;;;-2.08;50.04
46111;BME280;31849;55.992;37.252;2023-02-16T14:50:15;99908.16;;;-2.16;50.70
46111;BME280;31849;55.992;37.252;2023-02-16T14:55:46;99898.56;;;-2.20;50.59
46111;BME280;31849;55.992;37.252;2023-02-16T15:01:02;99913.09;;;-2.34;51.27
46111;BME280;31849;55.992;37.252;2023-02-16T15:06:18;99913.81;;;-2.51;51.43
46111;BME280;31849;55.992;37.252;2023-02-16T15:11:27;99915.84;;;-2.60;51.43
46111;BME280;31849;55.992;37.252;2023-02-16T15:16:31;99903.28;;;-2.72;51.99
46111;BME280;31849;55.992;37.252;2023-02-16T15:21:37;99886.69;;;-2.80;51.63
46111;BME280;31849;55.992;37.252;2023-02-16T15:26:52;99909.88;;;-2.61;52.11
46111;BME280;31849;55.992;37.252;2023-02-16T15:31:58;99912.06;;;-2.82;52.27
46111;BME280;31849;55.992;37.252;2023-02-16T15:37:21;99909.81;;;-3.21;53.14
46111;BME280;31849;55.992;37.252;2023-02-16T15:42:28;99911.69;;;-3.31;53.18
46111;BME280;31849;55.992;37.252;2023-02-16T15:47:35;99908.00;;;-3.37;53.01
46111;BME280;31849;55.992;37.252;2023-02-16T15:52:40;99910.19;;;-3.43;53.06
46111;BME280;31849;55.992;37.252;2023-02-16T15:57:44;99908.28;;;-3.60;52.77
46111;BME280;31849;55.992;37.252;2023-02-16T16:02:48;99910.38;;;-3.81;53.11
46111;BME280;31849;55.992;37.252;2023-02-16T16:07:55;99906.00;;;-4.11;53.92
46111;BME280;31849;55.992;37.252;2023-02-16T16:13:01;99912.53;;;-4.28;54.31
46111;BME280;31849;55.992;37.252;2023-02-16T16:18:36;99908.56;;;-4.24;53.99
46111;BME280;31849;55.992;37.252;2023-02-16T16:23:51;99901.53;;;-4.28;54.50
46111;BME280;31849;55.992;37.252;2023-02-16T16:28:55;99905.91;;;-4.26;53.51
46111;BME280;31849;55.992;37.252;2023-02-16T16:34:01;99906.50;;;-4.56;54.15
46111;BME280;31849;55.992;37.252;2023-02-16T16:39:25;99902.47;;;-4.66;54.39
46111;BME280;31849;55.992;37.252;2023-02-16T16:44:32;99903.84;;;-4.71;54.64
46111;BME280;31849;55.992;37.252;2023-02-16T16:49:37;99904.31;;;-4.77;54.01
46111;BME280;31849;55.992;37.252;2023-02-16T16:54:47;99902.75;;;-4.88;54.73
46111;BME280;31849;55.992;37.252;2023-02-16T16:59:51;99902.66;;;-5.02;55.17
46111;BME280;31849;55.992;37.252;2023-02-16T17:04:55;99896.44;;;-5.07;54.98
46111;BME280;31849;55.992;37.252;2023-02-16T17:10:00;99908.53;;;-5.03;54.83
46111;BME280;31849;55.992;37.252;2023-02-16T17:15:05;99912.31;;;-5.09;55.62
46111;BME280;31849;55.992;37.252;2023-02-16T17:25:17;99910.53;;;-5.24;55.87
46111;BME280;31849;55.992;37.252;2023-02-16T17:30:21;99911.09;;;-5.28;55.80
46111;BME280;31849;55.992;37.252;2023-02-16T17:35:24;99907.03;;;-5.38;55.95
46111;BME280;31849;55.992;37.252;2023-02-16T17:40:30;99920.47;;;-5.27;55.45
46111;BME280;31849;55.992;37.252;2023-02-16T17:45:33;99909.41;;;-5.27;55.59
46111;BME280;31849;55.992;37.252;2023-02-16T17:50:37;99903.38;;;-5.30;55.26
46111;BME280;31849;55.992;37.252;2023-02-16T17:55:42;99924.22;;;-5.08;55.92
46111;BME280;31849;55.992;37.252;2023-02-16T18:00:46;99929.28;;;-5.08;55.48
46111;BME280;31849;55.992;37.252;2023-02-16T18:05:53;99929.91;;;-4.99;55.77
46111;BME280;31849;55.992;37.252;2023-02-16T18:10:58;99936.81;;;-4.71;55.18
46111;BME280;31849;55.992;37.252;2023-02-16T18:16:05;99932.72;;;-4.69;55.04
46111;BME280;31849;55.992;37.252;2023-02-16T18:21:09;99936.84;;;-4.58;55.32
46111;BME280;31849;55.992;37.252;2023-02-16T18:26:15;99943.09;;;-4.53;54.72
46111;BME280;31849;55.992;37.252;2023-02-16T18:31:18;99933.50;;;-4.70;55.18
46111;BME280;31849;55.992;37.252;2023-02-16T18:36:22;99935.94;;;-4.72;55.40
46111;BME280;31849;55.992;37.252;2023-02-16T18:41:27;99930.38;;;-4.66;55.33
46111;BME280;31849;55.992;37.252;2023-02-16T18:46:31;99932.47;;;-4.86;54.90
46111;BME280;31849;55.992;37.252;2023-02-16T18:51:34;99939.38;;;-4.97;55.28
46111;BME280;31849;55.992;37.252;2023-02-16T18:56:39;99935.13;;;-5.09;55.33
46111;BME280;31849;55.992;37.252;2023-02-16T19:01:43;99926.19;;;-5.30;55.28
46111;BME280;31849;55.992;37.252;2023-02-16T19:06:46;99915.47;;;-5.51;55.33
46111;BME280;31849;55.992;37.252;2023-02-16T19:11:51;99921.59;;;-5.72;55.48
46111;BME280;31849;55.992;37.252;2023-02-16T19:16:55;99903.47;;;-5.90;55.61
46111;BME280;31849;55.992;37.252;2023-02-16T19:21:58;99922.50;;;-5.95;56.04
46111;BME280;31849;55.992;37.252;2023-02-16T19:27:03;99907.38;;;-6.19;56.18
46111;BME280;31849;55.992;37.252;2023-02-16T19:32:07;99923.13;;;-6.11;56.19
46111;BME280;31849;55.992;37.252;2023-02-16T19:37:10;99920.59;;;-6.11;56.10
46111;BME280;31849;55.992;37.252;2023-02-16T19:42:16;99917.44;;;-5.95;55.59
46111;BME280;31849;55.992;37.252;2023-02-16T19:47:19;99922.72;;;-5.92;55.45
46111;BME280;31849;55.992;37.252;2023-02-16T19:52:23;99930.19;;;-5.94;55.33
46111;BME280;31849;55.992;37.252;2023-02-16T19:57:28;99930.75;;;-5.74;55.34
46111;BME280;31849;55.992;37.252;2023-02-16T20:02:31;99932.69;;;-5.70;55.09
46111;BME280;31849;55.992;37.252;2023-02-16T20:07:35;99932.00;;;-5.56;54.94
46111;BME280;31849;55.992;37.252;2023-02-16T20:12:40;99920.13;;;-5.32;54.57
46111;BME280;31849;55.992;37.252;2023-02-16T20:17:43;99917.66;;;-5.18;54.82
46111;BME280;31849;55.992;37.252;2023-02-16T20:22:47;99908.09;;;-5.22;54.47
46111;BME280;31849;55.992;37.252;2023-02-16T20:27:52;99918.91;;;-5.00;54.08
46111;BME280;31849;55.992;37.252;2023-02-16T20:32:55;99922.34;;;-5.11;54.08
46111;BME280;31849;55.992;37.252;2023-02-16T20:37:59;99913.28;;;-5.21;54.38
46111;BME280;31849;55.992;37.252;2023-02-16T20:43:04;99918.59;;;-5.04;54.35
46111;BME280;31849;55.992;37.252;2023-02-16T20:48:08;99923.34;;;-5.09;54.14
46111;BME280;31849;55.992;37.252;2023-02-16T20:53:11;99908.13;;;-5.09;54.33
46111;BME280;31849;55.992;37.252;2023-02-16T20:58:16;99907.38;;;-4.95;53.60
46111;BME280;31849;55.992;37.252;2023-02-16T21:03:20;99907.53;;;-5.05;53.98
46111;BME280;31849;55.992;37.252;2023-02-16T21:08:23;99904.06;;;-4.93;54.08
46111;BME280;31849;55.992;37.252;2023-02-16T21:13:28;99899.97;;;-4.91;54.17
46111;BME280;31849;55.992;37.252;2023-02-16T21:18:32;99897.97;;;-4.84;53.43
46111;BME280;31849;55.992;37.252;2023-02-16T21:23:36;99906.34;;;-4.85;53.29
46111;BME280;31849;55.992;37.252;2023-02-16T21:28:41;99890.19;;;-4.73;53.16
46111;BME280;31849;55.992;37.252;2023-02-16T21:33:45;99894.34;;;-4.74;53.54
46111;BME280;31849;55.992;37.252;2023-02-16T21:38:49;99893.78;;;-4.70;53.60
46111;BME280;31849;55.992;37.252;2023-02-16T21:43:56;99899.66;;;-4.57;53.30
46111;BME280;31849;55.992;37.252;2023-02-16T21:49:00;99898.84;;;-4.70;53.44
46111;BME280;31849;55.992;37.252;2023-02-16T21:54:05;99893.66;;;-4.85;53.56
46111;BME280;31849;55.992;37.252;2023-02-16T21:59:11;99897.53;;;-4.90;53.35
46111;BME280;31849;55.992;37.252;2023-02-16T22:04:16;99877.19;;;-5.17;53.34
46111;BME280;31849;55.992;37.252;2023-02-16T22:09:21;99904.59;;;-5.11;53.96
46111;BME280;31849;55.992;37.252;2023-02-16T22:14:26;99877.97;;;-5.18;54.08
46111;BME280;31849;55.992;37.252;2023-02-16T22:19:30;99890.41;;;-5.09;53.64
46111;BME280;31849;55.992;37.252;2023-02-16T22:24:33;99896.38;;;-4.95;54.32
46111;BME280;31849;55.992;37.252;2023-02-16T22:29:40;99892.78;;;-4.85;53.84
46111;BME280;31849;55.992;37.252;2023-02-16T22:34:44;99894.53;;;-4.84;53.73
46111;BME280;31849;55.992;37.252;2023-02-16T22:39:48;99889.19;;;-4.75;53.70
46111;BME280;31849;55.992;37.252;2023-02-16T22:44:54;99877.97;;;-4.79;53.71
46111;BME280;31849;55.992;37.252;2023-02-16T22:49:58;99873.06;;;-4.89;53.81
46111;BME280;31849;55.992;37.252;2023-02-16T22:55:04;99875.81;;;-4.86;54.30
46111;BME280;31849;55.992;37.252;2023-02-16T23:00:13;99870.06;;;-4.84;53.55
46111;BME280;31849;55.992;37.252;2023-02-16T23:05:17;99874.44;;;-4.81;53.91
46111;BME280;31849;55.992;37.252;2023-02-16T23:10:20;99873.06;;;-4.89;54.21
46111;BME280;31849;55.992;37.252;2023-02-16T23:15:25;99876.56;;;-4.87;54.55
46111;BME280;31849;55.992;37.252;2023-02-16T23:20:28;99870.94;;;-4.83;54.42
46111;BME280;31849;55.992;37.252;2023-02-16T23:25:32;99877.88;;;-4.81;54.73
46111;BME280;31849;55.992;37.252;2023-02-16T23:30:40;99876.03;;;-5.08;53.99
46111;BME280;31849;55.992;37.252;2023-02-16T23:35:44;99873.03;;;-5.03;54.71
46111;BME280;31849;55.992;37.252;2023-02-16T23:40:54;99873.56;;;-4.82;54.38
46111;BME280;31849;55.992;37.252;2023-02-16T23:45:59;99863.06;;;-4.61;53.64
46111;BME280;31849;55.992;37.252;2023-02-16T23:51:04;99873.47;;;-4.70;53.85
46111;BME280;31849;55.992;37.252;2023-02-16T23:56:10;99869.09;;;-4.59;53.78
